createdAt,value
2023-03-24T00:01:53.131Z,11.41
2023-03-24T00:04:38.632Z,11.41
2023-03-24T00:07:25.293Z,11.38
2023-03-24T00:10:13.909Z,11.36
2023-03-24T00:12:58.905Z,11.38
2023-03-24T00:15:44.388Z,11.38
2023-03-24T00:18:29.809Z,11.38
2023-03-24T00:21:15.225Z,11.25
2023-03-24T00:24:00.925Z,11.32
2023-03-24T00:26:46.245Z,11.28
2023-03-24T00:29:31.812Z,11.29
2023-03-24T00:32:17.106Z,11.21
2023-03-24T00:35:04.495Z,11.24
2023-03-24T00:37:49.550Z,11.25
2023-03-24T00:40:35.228Z,11.18
2023-03-24T00:43:20.708Z,11.18
2023-03-24T00:46:08.360Z,11.20
2023-03-24T00:48:55.959Z,11.16
2023-03-24T00:51:42.839Z,11.16
2023-03-24T00:54:28.345Z,11.13
2023-03-24T00:57:15.265Z,11.21
2023-03-24T01:00:04.103Z,11.15
2023-03-24T01:02:51.532Z,11.16
2023-03-24T01:05:37.243Z,11.16
2023-03-24T01:08:22.460Z,11.17
2023-03-24T01:11:07.918Z,11.17
2023-03-24T01:13:53.776Z,11.16
2023-03-24T01:16:39.649Z,11.15
2023-03-24T01:19:24.661Z,11.20
2023-03-24T01:22:10.292Z,11.19
2023-03-24T01:24:56.478Z,11.21
2023-03-24T01:27:41.605Z,11.22
2023-03-24T01:30:28.999Z,11.29
2023-03-24T01:33:14.159Z,11.35
2023-03-24T01:35:58.965Z,11.40
2023-03-24T01:38:44.705Z,11.44
2023-03-24T01:41:36.875Z,11.43
2023-03-24T01:44:27.852Z,11.41
2023-03-24T01:47:12.794Z,11.44
2023-03-24T01:50:01.611Z,11.47
2023-03-24T01:52:47.270Z,11.51
2023-03-24T01:55:32.829Z,11.57
2023-03-24T01:58:18.521Z,11.62
2023-03-24T02:01:03.989Z,11.63
2023-03-24T02:03:49.312Z,11.65
2023-03-24T02:06:37.644Z,11.68
2023-03-24T02:09:22.929Z,11.65
2023-03-24T02:12:08.422Z,11.60
2023-03-24T02:14:53.766Z,11.55
2023-03-24T02:17:56.595Z,11.52
2023-03-24T02:21:00.364Z,11.55
2023-03-24T02:24:07.090Z,11.44
2023-03-24T02:27:02.261Z,11.46
2023-03-24T02:30:20.172Z,11.50
2023-03-24T02:33:24.775Z,11.49
2023-03-24T02:36:31.692Z,11.72
2023-03-24T02:39:35.485Z,11.73
2023-03-24T02:42:44.072Z,11.59
2023-03-24T02:45:42.448Z,11.53
2023-03-24T02:48:57.532Z,11.49
2023-03-24T02:52:03.490Z,11.47
2023-03-24T02:55:03.828Z,11.42
2023-03-24T02:58:03.143Z,11.44
2023-03-24T03:00:57.856Z,11.44
2023-03-24T03:03:49.706Z,11.46
2023-03-24T03:06:38.904Z,11.44
2023-03-24T03:09:25.195Z,11.45
2023-03-24T03:12:12.291Z,11.44
2023-03-24T03:15:09.918Z,11.43
2023-03-24T03:18:02.371Z,11.41
2023-03-24T03:20:54.488Z,11.39
2023-03-24T03:23:56.347Z,11.39
2023-03-24T03:26:45.192Z,11.35
2023-03-24T03:29:36.718Z,11.24
2023-03-24T03:32:30.829Z,11.21
2023-03-24T03:35:22.497Z,11.21
2023-03-24T03:38:28.911Z,11.25
2023-03-24T03:41:16.088Z,11.26
2023-03-24T03:44:02.012Z,11.29
2023-03-24T03:46:47.615Z,11.28
2023-03-24T03:49:32.849Z,11.32
2023-03-24T03:52:18.712Z,11.36
2023-03-24T03:55:05.551Z,11.32
2023-03-24T03:57:51.017Z,11.34
2023-03-24T04:00:36.717Z,11.42
2023-03-24T04:03:43.119Z,11.56
2023-03-24T04:06:59.420Z,11.62
2023-03-24T04:09:53.618Z,11.71
2023-03-24T04:12:46.379Z,11.84
2023-03-24T04:15:31.530Z,11.99
2023-03-24T04:18:36.672Z,12.10
2023-03-24T04:21:30.987Z,12.30
2023-03-24T04:24:45.883Z,12.34
2023-03-24T04:27:56.342Z,12.35
2023-03-24T04:30:41.784Z,12.38
2023-03-24T04:33:34.678Z,12.46
2023-03-24T04:36:29.194Z,12.54
2023-03-24T04:39:24.959Z,12.54
2023-03-24T04:42:18.355Z,12.64
2023-03-24T04:45:05.720Z,12.60
2023-03-24T04:47:56.344Z,12.51
2023-03-24T04:50:44.037Z,12.67
2023-03-24T04:53:29.649Z,12.72
2023-03-24T04:56:29.558Z,12.77
2023-03-24T04:59:15.799Z,12.75
2023-03-24T05:02:02.235Z,12.65
2023-03-24T05:04:47.402Z,12.62
2023-03-24T05:07:32.551Z,12.63
2023-03-24T05:10:19.486Z,12.63
2023-03-24T05:13:07.133Z,12.59
2023-03-24T05:15:53.713Z,12.49
2023-03-24T05:18:39.600Z,12.43
2023-03-24T05:21:25.947Z,12.27
2023-03-24T05:24:11.156Z,12.21
2023-03-24T05:26:56.235Z,12.18
2023-03-24T05:29:41.604Z,12.20
2023-03-24T05:32:26.619Z,12.23
2023-03-24T05:35:11.944Z,12.23
2023-03-24T05:37:57.266Z,12.33
2023-03-24T05:40:42.580Z,12.32
2023-03-24T05:43:28.035Z,12.30
2023-03-24T05:46:13.454Z,12.24
2023-03-24T05:48:59.026Z,12.20
2023-03-24T05:51:44.385Z,12.26
2023-03-24T05:54:29.340Z,12.18
2023-03-24T05:57:16.235Z,12.27
2023-03-24T06:00:01.568Z,12.18
2023-03-24T06:02:47.453Z,12.20
2023-03-24T06:05:32.788Z,12.23
2023-03-24T06:08:18.050Z,12.11
2023-03-24T06:11:04.017Z,12.15
2023-03-24T06:13:49.256Z,12.11
2023-03-24T06:16:34.733Z,12.18
2023-03-24T06:19:19.810Z,12.17
2023-03-24T06:22:05.260Z,12.15
2023-03-24T06:24:50.604Z,12.19
2023-03-24T06:27:36.132Z,12.27
2023-03-24T06:30:21.918Z,11.92
2023-03-24T06:33:08.393Z,11.71
2023-03-24T06:35:53.957Z,11.55
2023-03-24T06:38:40.142Z,11.39
2023-03-24T06:41:25.576Z,11.24
2023-03-24T06:44:11.047Z,11.26
2023-03-24T06:46:56.510Z,11.15
2023-03-24T06:49:41.816Z,11.07
2023-03-24T06:52:27.178Z,10.96
2023-03-24T06:55:12.614Z,10.82
2023-03-24T06:57:57.595Z,10.82
2023-03-24T07:00:44.224Z,11.00
2023-03-24T07:03:29.689Z,10.54
2023-03-24T07:06:15.152Z,10.59
2023-03-24T07:09:00.462Z,10.80
2023-03-24T07:11:45.936Z,10.76
2023-03-24T07:14:31.568Z,10.73
2023-03-24T07:17:16.674Z,10.50
2023-03-24T07:20:02.117Z,10.56
2023-03-24T07:22:47.971Z,10.99
2023-03-24T07:25:33.329Z,11.26
2023-03-24T07:28:18.983Z,11.79
2023-03-24T07:31:06.105Z,12.09
2023-03-24T07:33:51.217Z,12.11
2023-03-24T07:36:36.623Z,11.94
2023-03-24T07:39:21.875Z,11.79
2023-03-24T07:42:06.894Z,11.72
2023-03-24T07:44:52.299Z,11.78
2023-03-24T07:47:38.606Z,11.49
2023-03-24T07:50:23.773Z,11.24
2023-03-24T07:53:09.198Z,11.52
2023-03-24T07:55:54.493Z,11.58
2023-03-24T07:58:40.133Z,11.96
2023-03-24T08:01:25.207Z,11.34
2023-03-24T08:04:13.761Z,11.56
2023-03-24T08:06:59.096Z,11.37
2023-03-24T08:09:44.581Z,11.43
2023-03-24T08:12:30.019Z,11.63
2023-03-24T08:15:15.439Z,11.49
2023-03-24T08:18:00.453Z,11.88
2023-03-24T08:20:45.790Z,11.79
2023-03-24T08:23:31.320Z,11.65
2023-03-24T08:26:16.927Z,11.51
2023-03-24T08:29:02.975Z,11.74
2023-03-24T08:31:48.280Z,11.74
2023-03-24T08:34:33.595Z,11.86
2023-03-24T08:37:18.951Z,12.09
2023-03-24T08:40:04.979Z,12.11
2023-03-24T08:42:55.785Z,11.50
2023-03-24T08:45:41.824Z,11.81
2023-03-24T08:48:28.920Z,12.18
2023-03-24T08:51:16.386Z,12.66
2023-03-24T08:54:01.532Z,12.20
2023-03-24T08:56:47.042Z,12.26
2023-03-24T08:59:32.321Z,12.11
2023-03-24T09:02:18.709Z,12.19
2023-03-24T09:05:04.455Z,12.29
2023-03-24T09:07:50.518Z,12.66
2023-03-24T09:10:36.162Z,12.73
2023-03-24T09:13:21.921Z,12.36
2023-03-24T09:16:07.437Z,12.31
2023-03-24T09:18:52.707Z,11.88
2023-03-24T09:21:38.143Z,12.16
2023-03-24T09:24:23.505Z,12.07
2023-03-24T09:27:08.661Z,12.16
2023-03-24T09:29:54.152Z,12.64
2023-03-24T09:32:39.324Z,12.41
2023-03-24T09:35:25.889Z,11.99
2023-03-24T09:38:11.143Z,12.33
2023-03-24T09:40:59.044Z,12.39
2023-03-24T09:44:24.914Z,12.29
2023-03-24T09:47:26.004Z,12.23
2023-03-24T09:50:23.279Z,12.38
2023-03-24T09:53:27.169Z,12.02
2023-03-24T09:56:16.932Z,12.68
2023-03-24T09:59:05.961Z,12.55
2023-03-24T10:01:51.320Z,12.51
2023-03-24T10:04:36.809Z,13.02
2023-03-24T10:07:32.435Z,13.19
2023-03-24T10:10:59.555Z,12.70
2023-03-24T10:13:56.686Z,12.57
2023-03-24T10:17:02.959Z,12.37
2023-03-24T10:20:26.023Z,12.38
2023-03-24T10:23:14.455Z,12.49
2023-03-24T10:26:21.636Z,12.10
2023-03-24T10:29:24.813Z,12.11
2023-03-24T10:32:17.309Z,12.08
2023-03-24T10:35:06.743Z,12.22
2023-03-24T10:37:54.898Z,12.30
2023-03-24T10:40:41.013Z,12.61
2023-03-24T10:43:27.253Z,12.25
2023-03-24T10:46:16.121Z,12.25
2023-03-24T10:49:12.797Z,12.63
2023-03-24T10:52:03.310Z,13.08
2023-03-24T10:55:03.714Z,13.31
2023-03-24T10:57:53.032Z,12.93
2023-03-24T11:00:40.007Z,13.32
2023-03-24T11:03:30.980Z,12.73
2023-03-24T11:06:20.140Z,12.86
2023-03-24T11:09:19.467Z,13.41
2023-03-24T11:12:05.333Z,13.81
2023-03-24T11:14:50.519Z,13.54
2023-03-24T11:17:35.978Z,13.80
2023-03-24T11:20:33.959Z,13.35
2023-03-24T11:23:38.342Z,12.97
2023-03-24T11:26:31.511Z,13.39
2023-03-24T11:29:22.864Z,13.13
2023-03-24T11:32:13.996Z,13.49
2023-03-24T11:35:17.797Z,13.90
2023-03-24T11:38:06.200Z,13.54
2023-03-24T11:40:57.562Z,13.52
2023-03-24T11:43:46.309Z,13.44
2023-03-24T11:46:32.662Z,13.19
2023-03-24T11:49:21.715Z,13.40
2023-03-24T11:52:18.131Z,13.43
2023-03-24T11:55:12.914Z,13.35
2023-03-24T11:58:22.161Z,13.35
2023-03-24T12:01:17.063Z,13.73
2023-03-24T12:04:41.293Z,14.46
2023-03-24T12:08:08.874Z,15.20
2023-03-24T12:11:18.028Z,15.25
2023-03-24T12:14:05.046Z,14.63
2023-03-24T12:16:54.196Z,14.45
2023-03-24T12:19:57.530Z,14.68
2023-03-24T12:22:48.756Z,14.95
2023-03-24T12:25:49.505Z,15.23
2023-03-24T12:28:34.646Z,15.30
2023-03-24T12:31:44.825Z,14.17
2023-03-24T12:34:43.526Z,14.23
2023-03-24T12:37:41.156Z,14.54
2023-03-24T12:40:54.179Z,14.00
2023-03-24T12:43:58.454Z,14.70
2023-03-24T12:47:05.347Z,14.35
2023-03-24T12:49:59.547Z,13.72
2023-03-24T12:53:04.955Z,14.32
2023-03-24T12:56:04.028Z,15.15
2023-03-24T12:59:01.194Z,14.64
2023-03-24T13:01:54.446Z,14.18
2023-03-24T13:04:44.192Z,14.28
2023-03-24T13:07:31.748Z,13.73
2023-03-24T13:10:27.555Z,14.35
2023-03-24T13:13:21.766Z,14.44
2023-03-24T13:16:13.771Z,14.39
2023-03-24T13:19:00.229Z,14.18
2023-03-24T13:21:47.168Z,14.37
2023-03-24T13:24:32.664Z,13.89
2023-03-24T13:27:36.128Z,13.97
2023-03-24T13:30:37.317Z,14.55
2023-03-24T13:33:28.379Z,14.01
2023-03-24T13:36:42.803Z,14.08
2023-03-24T13:39:29.924Z,14.33
2023-03-24T13:42:47.483Z,14.26
2023-03-24T13:45:44.229Z,14.15
2023-03-24T13:48:41.768Z,13.81
2023-03-24T13:51:32.832Z,13.69
2023-03-24T13:54:27.550Z,13.89
2023-03-24T13:57:21.923Z,13.86
2023-03-24T14:00:22.658Z,13.63
2023-03-24T14:03:31.037Z,13.68
2023-03-24T14:06:44.580Z,13.72
2023-03-24T14:09:31.337Z,13.78
2023-03-24T14:12:19.928Z,13.77
2023-03-24T14:15:05.206Z,13.72
2023-03-24T14:17:55.040Z,13.84
2023-03-24T14:20:59.848Z,13.74
2023-03-24T14:23:49.862Z,13.60
2023-03-24T14:26:35.947Z,13.56
2023-03-24T14:29:47.592Z,13.59
2023-03-24T14:32:39.208Z,13.55
2023-03-24T14:35:36.677Z,13.54
2023-03-24T14:38:25.581Z,13.74
2023-03-24T14:41:16.397Z,13.93
2023-03-24T14:44:01.570Z,13.88
2023-03-24T14:46:47.975Z,13.86
2023-03-24T14:49:33.874Z,13.71
2023-03-24T14:52:41.988Z,13.73
2023-03-24T14:55:28.000Z,13.64
2023-03-24T14:58:35.010Z,13.54
2023-03-24T15:01:22.115Z,13.48
2023-03-24T15:04:08.607Z,13.39
2023-03-24T15:06:53.557Z,13.28
2023-03-24T15:09:48.641Z,12.52
2023-03-24T15:12:34.203Z,11.87
2023-03-24T15:15:23.113Z,11.43
2023-03-24T15:18:17.030Z,10.80
2023-03-24T15:21:21.489Z,10.73
2023-03-24T15:24:25.322Z,10.63
2023-03-24T15:27:18.684Z,10.56
2023-03-24T15:30:06.056Z,10.56
2023-03-24T15:32:51.973Z,10.77
2023-03-24T15:35:37.411Z,10.94
2023-03-24T15:38:31.199Z,10.94
2023-03-24T15:41:19.153Z,10.77
2023-03-24T15:44:10.060Z,10.65
2023-03-24T15:46:58.092Z,10.31
2023-03-24T15:49:50.295Z,10.39
2023-03-24T15:52:39.017Z,10.39
2023-03-24T15:55:30.158Z,10.50
2023-03-24T15:58:30.044Z,10.53
2023-03-24T16:01:20.756Z,10.72
2023-03-24T16:04:12.912Z,10.31
2023-03-24T16:06:57.920Z,10.45
2023-03-24T16:09:43.297Z,10.30
2023-03-24T16:12:28.373Z,10.04
2023-03-24T16:15:13.817Z,9.94
2023-03-24T16:17:59.338Z,9.89
2023-03-24T16:20:44.418Z,9.88
2023-03-24T16:23:31.089Z,9.89
2023-03-24T16:26:21.686Z,9.85
2023-03-24T16:29:13.087Z,9.89
2023-03-24T16:31:58.134Z,10.08
2023-03-24T16:34:43.053Z,9.91
2023-03-24T16:37:28.555Z,9.78
2023-03-24T16:40:30.782Z,9.77
2023-03-24T16:43:15.882Z,9.68
2023-03-24T16:46:01.514Z,9.58
2023-03-24T16:48:47.378Z,9.59
2023-03-24T16:51:33.501Z,9.60
2023-03-24T16:54:18.771Z,9.56
2023-03-24T16:57:04.117Z,9.54
2023-03-24T16:59:49.086Z,9.52
2023-03-24T17:02:34.067Z,9.41
2023-03-24T17:05:34.365Z,9.41
2023-03-24T17:08:19.541Z,9.45
2023-03-24T17:11:05.072Z,9.40
2023-03-24T17:13:50.386Z,9.40
2023-03-24T17:16:37.756Z,9.42
2023-03-24T17:19:23.471Z,9.44
2023-03-24T17:22:08.692Z,9.46
2023-03-24T17:24:53.726Z,9.45
2023-03-24T17:27:39.410Z,9.51
2023-03-24T17:30:27.054Z,9.52
2023-03-24T17:33:14.156Z,9.64
2023-03-24T17:35:59.351Z,9.72
2023-03-24T17:38:44.776Z,9.74
2023-03-24T17:41:30.475Z,9.74
2023-03-24T17:44:15.787Z,9.76
2023-03-24T17:47:01.446Z,9.74
2023-03-24T17:49:46.517Z,9.71
2023-03-24T17:52:31.851Z,9.74
2023-03-24T17:55:17.605Z,9.74
2023-03-24T17:58:03.111Z,9.80
2023-03-24T18:00:49.267Z,9.79
2023-03-24T18:03:35.628Z,9.65
2023-03-24T18:06:20.748Z,9.67
2023-03-24T18:09:06.001Z,9.62
2023-03-24T18:11:51.370Z,9.61
2023-03-24T18:14:36.876Z,9.57
2023-03-24T18:17:23.363Z,9.52
2023-03-24T18:20:09.455Z,9.43
2023-03-24T18:22:54.692Z,9.44
2023-03-24T18:25:39.979Z,9.47
2023-03-24T18:28:25.379Z,9.48
2023-03-24T18:31:16.010Z,9.50
2023-03-24T18:34:01.449Z,9.51
2023-03-24T18:36:46.510Z,9.45
2023-03-24T18:39:31.520Z,9.40
2023-03-24T18:42:16.469Z,9.38
2023-03-24T18:45:01.499Z,9.30
2023-03-24T18:47:47.304Z,9.30
2023-03-24T18:50:32.413Z,9.30
2023-03-24T18:53:21.130Z,9.21
2023-03-24T18:56:07.785Z,9.19
2023-03-24T18:58:53.367Z,9.09
2023-03-24T19:01:38.905Z,9.00
2023-03-24T19:04:24.209Z,8.95
2023-03-24T19:07:09.813Z,8.84
2023-03-24T19:09:54.889Z,8.83
2023-03-24T19:12:39.830Z,8.74
2023-03-24T19:15:25.148Z,8.63
2023-03-24T19:18:10.201Z,8.52
2023-03-24T19:20:57.736Z,8.52
2023-03-24T19:23:42.938Z,8.45
2023-03-24T19:26:28.280Z,8.51
2023-03-24T19:29:13.221Z,8.47
2023-03-24T19:31:58.591Z,8.37
2023-03-24T19:34:43.376Z,8.30
2023-03-24T19:37:28.694Z,8.30
2023-03-24T19:40:14.253Z,8.30
2023-03-24T19:42:59.066Z,8.31
2023-03-24T19:45:51.870Z,8.26
2023-03-24T19:48:37.550Z,8.21
2023-03-24T19:51:22.990Z,8.20
2023-03-24T19:54:08.224Z,8.14
2023-03-24T19:56:53.621Z,8.19
2023-03-24T19:59:38.881Z,8.18
2023-03-24T20:02:23.712Z,8.24
2023-03-24T20:05:09.542Z,8.37
2023-03-24T20:07:54.754Z,8.44
2023-03-24T20:10:40.746Z,8.47
2023-03-24T20:13:25.675Z,8.46
2023-03-24T20:16:11.227Z,8.49
2023-03-24T20:18:56.449Z,8.43
2023-03-24T20:21:42.040Z,8.40
2023-03-24T20:24:27.293Z,8.45
2023-03-24T20:27:13.913Z,8.38
2023-03-24T20:29:59.189Z,8.32
2023-03-24T20:32:44.110Z,8.29
2023-03-24T20:35:29.315Z,8.32
2023-03-24T20:38:14.468Z,8.36
2023-03-24T20:41:05.723Z,8.35
2023-03-24T20:43:50.860Z,8.42
2023-03-24T20:46:36.337Z,8.43
2023-03-24T20:49:21.632Z,8.39
2023-03-24T20:52:07.091Z,8.35
2023-03-24T20:54:52.321Z,8.27
2023-03-24T20:57:37.363Z,8.26
2023-03-24T21:00:22.441Z,8.19
2023-03-24T21:03:10.339Z,8.21
2023-03-24T21:05:56.258Z,8.21
2023-03-24T21:08:45.024Z,8.21
2023-03-24T21:11:30.456Z,8.23
2023-03-24T21:14:15.669Z,8.25
2023-03-24T21:17:01.302Z,8.26
2023-03-24T21:19:46.424Z,8.26
2023-03-24T21:22:32.179Z,8.29
2023-03-24T21:25:17.288Z,8.32
2023-03-24T21:28:03.756Z,8.33
2023-03-24T21:30:48.616Z,8.29
2023-03-24T21:33:33.929Z,8.39
2023-03-24T21:36:20.162Z,8.47
2023-03-24T21:39:06.003Z,8.51
2023-03-24T21:41:51.089Z,8.53
2023-03-24T21:44:36.929Z,8.61
2023-03-24T21:47:22.482Z,8.62
2023-03-24T21:50:08.863Z,8.61
2023-03-24T21:52:54.172Z,8.69
2023-03-24T21:55:39.482Z,8.66
2023-03-24T21:58:24.930Z,8.63
2023-03-24T22:01:10.329Z,8.68
2023-03-24T22:03:55.777Z,8.75
2023-03-24T22:06:41.154Z,8.83
2023-03-24T22:09:27.078Z,8.77
2023-03-24T22:12:12.256Z,8.75
2023-03-24T22:14:57.265Z,8.74
2023-03-24T22:17:42.977Z,8.73
2023-03-24T22:20:28.259Z,8.62
2023-03-24T22:23:13.630Z,8.57
2023-03-24T22:26:21.238Z,8.52
2023-03-24T22:29:06.642Z,8.52
2023-03-24T22:31:52.109Z,8.57
2023-03-24T22:34:37.496Z,8.57
2023-03-24T22:37:23.027Z,8.59
2023-03-24T22:40:08.996Z,8.64
2023-03-24T22:42:54.008Z,8.66
2023-03-24T22:45:39.354Z,8.65
2023-03-24T22:48:25.111Z,8.60
2023-03-24T22:51:10.065Z,8.63
2023-03-24T22:53:56.018Z,8.63
2023-03-24T22:56:41.089Z,8.65
2023-03-24T22:59:26.138Z,8.57
2023-03-24T23:02:11.218Z,8.59
2023-03-24T23:04:56.778Z,8.62
2023-03-24T23:07:42.002Z,8.57
2023-03-24T23:10:27.941Z,8.68
2023-03-24T23:13:13.146Z,8.75
2023-03-24T23:15:58.351Z,8.69
2023-03-24T23:18:43.777Z,8.71
2023-03-24T23:21:33.029Z,8.66
2023-03-24T23:24:18.299Z,8.64
2023-03-24T23:27:03.322Z,8.54
2023-03-24T23:29:48.239Z,8.64
2023-03-24T23:32:35.468Z,8.77
2023-03-24T23:35:20.820Z,8.91
2023-03-24T23:38:06.273Z,8.89
2023-03-24T23:40:51.697Z,9.02
2023-03-24T23:43:37.203Z,8.96
2023-03-24T23:46:23.691Z,8.94
2023-03-24T23:49:09.081Z,8.93
2023-03-24T23:51:54.616Z,9.00
2023-03-24T23:54:39.708Z,8.96
2023-03-24T23:57:25.132Z,8.88
